Time;durP1;ratioP1;P1;durP2;ratioP2;P2;SDS_P1;SDS_P2;PMS_P1;PMS_P2;Temp;Humidity;BMP_temperature;BMP_pressure;BME280_temperature;BME280_humidity;BME280_pressure;Samples;Min_cycle;Max_cycle;Signal;HPM_P1;HPM_P2
2021/12/04 00:00:34;;;;;;;17.55;15.45;;;5.40;99.90;;;;;;5053288;28;20392;-80
2021/12/04 00:03:00;;;;;;;20.50;15.15;;;5.40;99.90;;;;;;5052184;28;20040;-81
2021/12/04 00:05:25;;;;;;;18.45;15.02;;;5.30;99.90;;;;;;5052004;28;20017;-80
2021/12/04 00:07:51;;;;;;;22.35;16.20;;;5.40;99.90;;;;;;5052135;28;20032;-79
2021/12/04 00:10:18;;;;;;;23.80;16.52;;;5.40;99.90;;;;;;5054719;28;20081;-79
2021/12/04 00:12:45;;;;;;;23.50;17.23;;;5.30;99.90;;;;;;5052534;28;20033;-81
2021/12/04 00:15:11;;;;;;;23.27;17.00;;;5.30;99.90;;;;;;5051974;28;20025;-80
2021/12/04 00:17:36;;;;;;;28.13;19.83;;;5.30;99.90;;;;;;5052439;28;20059;-81
2021/12/04 00:20:04;;;;;;;27.60;18.98;;;5.40;99.90;;;;;;5057502;28;20048;-80
2021/12/04 00:22:30;;;;;;;25.92;17.63;;;5.40;99.90;;;;;;5055076;28;20036;-80
2021/12/04 00:24:55;;;;;;;24.48;18.05;;;5.40;99.90;;;;;;5055669;28;20358;-79
2021/12/04 00:27:21;;;;;;;27.77;18.63;;;5.40;99.90;;;;;;5055433;28;20075;-80
2021/12/04 00:29:47;;;;;;;32.42;20.42;;;5.40;99.90;;;;;;5054867;28;20021;-81
2021/12/04 00:32:26;;;;;;;25.90;19.17;;;5.40;99.90;;;;;;5047616;28;20045;-80
2021/12/04 00:35:00;;;;;;;33.20;20.15;;;5.40;99.90;;;;;;5035330;28;20052;-80
2021/12/04 00:37:52;;;;;;;35.83;21.52;;;5.40;99.90;;;;;;5034660;28;20454;-80
2021/12/04 00:51:18;;;;;;;35.30;21.08;;;5.50;99.90;;;;;;5034022;28;20064;-79
2021/12/04 00:53:44;;;;;;;32.47;20.67;;;5.40;99.90;;;;;;5034705;28;20022;-78
2021/12/04 00:56:09;;;;;;;40.97;23.95;;;5.50;99.90;;;;;;5034787;28;20172;-80
2021/12/04 00:58:35;;;;;;;38.67;22.60;;;5.50;99.90;;;;;;5034227;28;20026;-80
2021/12/04 01:01:01;;;;;;;41.40;24.15;;;5.40;99.90;;;;;;5034754;28;20079;-80
2021/12/04 01:03:26;;;;;;;42.90;24.80;;;5.50;99.90;;;;;;5034383;28;20037;-81
2021/12/04 01:05:52;;;;;;;41.53;24.10;;;5.50;99.90;;;;;;5034126;28;20025;-82
2021/12/04 01:08:18;;;;;;;43.35;23.83;;;5.50;99.90;;;;;;5034122;28;20057;-81
2021/12/04 01:10:44;;;;;;;41.40;24.25;;;5.50;99.90;;;;;;5034818;28;20032;-81
2021/12/04 01:13:12;;;;;;;44.13;23.98;;;5.50;99.90;;;;;;5033833;28;20108;-81
2021/12/04 01:15:43;;;;;;;40.20;23.45;;;5.50;99.90;;;;;;5033210;28;20045;-80
2021/12/04 01:18:10;;;;;;;46.15;23.63;;;5.50;99.90;;;;;;5034588;28;20029;-81
2021/12/04 01:20:37;;;;;;;47.50;25.25;;;5.50;99.90;;;;;;5033961;28;20060;-80
2021/12/04 01:23:03;;;;;;;43.10;24.13;;;5.60;99.90;;;;;;5046628;28;20040;-78
2021/12/04 01:25:28;;;;;;;48.83;26.33;;;5.60;99.90;;;;;;5040849;28;20022;-80
2021/12/04 01:27:54;;;;;;;42.05;23.70;;;5.60;99.90;;;;;;5034077;28;20389;-81
2021/12/04 01:30:20;;;;;;;40.75;23.05;;;5.60;99.90;;;;;;5033846;28;20025;-79
2021/12/04 01:32:45;;;;;;;45.85;24.85;;;5.60;99.90;;;;;;5033523;28;20469;-79
2021/12/04 01:35:11;;;;;;;46.42;25.08;;;5.60;99.90;;;;;;5033783;28;20474;-79
2021/12/04 01:37:42;;;;;;;49.92;24.52;;;5.60;99.90;;;;;;5033973;28;20021;-79
2021/12/04 01:40:09;;;;;;;47.25;25.08;;;5.50;99.90;;;;;;5033589;28;20130;-81
2021/12/04 01:42:35;;;;;;;48.88;24.77;;;5.50;99.90;;;;;;5033511;28;20036;-79
2021/12/04 01:45:02;;;;;;;48.45;24.85;;;5.50;99.90;;;;;;5034136;28;20059;-80
2021/12/04 01:47:28;;;;;;;52.80;26.75;;;5.50;99.90;;;;;;5032969;28;20485;-80
2021/12/04 01:49:55;;;;;;;45.58;24.27;;;5.60;99.90;;;;;;5033933;28;20032;-79
2021/12/04 01:52:23;;;;;;;48.40;25.55;;;5.60;99.90;;;;;;5033883;28;20100;-79
2021/12/04 01:54:50;;;;;;;48.70;25.52;;;5.60;99.90;;;;;;5033261;28;20024;-79
2021/12/04 01:57:16;;;;;;;47.70;25.45;;;5.60;99.90;;;;;;5033542;28;20033;-80
2021/12/04 01:59:43;;;;;;;47.60;25.70;;;5.50;99.90;;;;;;5033468;28;20026;-79
2021/12/04 02:02:09;;;;;;;47.22;25.63;;;5.60;99.90;;;;;;5032769;28;20398;-80
2021/12/04 02:04:34;;;;;;;56.90;27.35;;;5.50;99.90;;;;;;5033439;28;20025;-80
2021/12/04 02:07:04;;;;;;;52.60;27.25;;;5.50;99.90;;;;;;5033443;28;20029;-79
2021/12/04 02:09:33;;;;;;;54.88;29.75;;;5.50;99.90;;;;;;5032554;28;20049;-81
2021/12/04 02:11:59;;;;;;;51.33;26.30;;;5.50;99.90;;;;;;5033302;28;20501;-80
2021/12/04 02:14:25;;;;;;;64.30;27.85;;;5.60;99.90;;;;;;5033050;28;20014;-81
2021/12/04 02:16:51;;;;;;;58.55;29.00;;;5.60;99.90;;;;;;5032756;28;20033;-79
2021/12/04 02:19:17;;;;;;;50.17;26.50;;;5.60;99.90;;;;;;5032894;28;20450;-80
2021/12/04 02:21:43;;;;;;;54.10;27.63;;;5.60;99.90;;;;;;5040257;28;20026;-79
2021/12/04 02:24:08;;;;;;;59.08;27.02;;;5.60;99.90;;;;;;5043890;28;20500;-79
2021/12/04 02:26:34;;;;;;;61.53;28.60;;;5.60;99.90;;;;;;5038458;28;20031;-80
2021/12/04 02:29:00;;;;;;;53.35;26.10;;;5.60;99.90;;;;;;5033933;28;20064;-79
2021/12/04 02:31:26;;;;;;;51.40;26.80;;;5.60;99.90;;;;;;5033002;28;20060;-79
2021/12/04 02:33:52;;;;;;;60.53;27.98;;;5.60;99.90;;;;;;5036517;28;20388;-81
2021/12/04 02:36:19;;;;;;;56.45;27.10;;;5.60;99.90;;;;;;5032211;28;20481;-79
2021/12/04 02:38:50;;;;;;;61.58;27.10;;;5.60;99.90;;;;;;5033292;28;20041;-79
2021/12/04 02:41:16;;;;;;;;;;;5.60;99.90;;;;;;5032817;28;20033;-80
2021/12/04 02:43:41;;;;;;;67.78;27.73;;;5.60;99.90;;;;;;5032396;28;19920;-79
2021/12/04 02:46:07;;;;;;;63.15;29.00;;;5.60;99.90;;;;;;5032661;28;20120;-79
2021/12/04 02:48:33;;;;;;;64.97;29.23;;;5.60;99.90;;;;;;5033615;28;20029;-80
2021/12/04 02:50:59;;;;;;;58.63;29.08;;;5.50;99.90;;;;;;5032228;28;20477;-79
2021/12/04 02:53:25;;;;;;;59.00;27.25;;;5.60;99.90;;;;;;5032728;28;20070;-79
2021/12/04 02:55:52;;;;;;;59.65;29.08;;;5.50;99.90;;;;;;5040115;28;20080;-79
2021/12/04 02:58:18;;;;;;;65.68;30.35;;;5.50;99.90;;;;;;5035170;28;20037;-80
2021/12/04 03:00:48;;;;;;;62.60;28.35;;;5.50;99.90;;;;;;5032191;28;20393;-80
2021/12/04 03:03:18;;;;;;;64.10;28.30;;;5.50;99.90;;;;;;5033904;28;20037;-82
2021/12/04 03:05:48;;;;;;;72.88;29.50;;;5.60;99.90;;;;;;5032028;28;20269;-80
2021/12/04 03:08:13;;;;;;;55.47;28.25;;;5.60;99.90;;;;;;5031965;28;20060;-79
2021/12/04 03:10:39;;;;;;;59.28;28.45;;;5.60;99.90;;;;;;5032208;28;20033;-80
2021/12/04 03:13:08;;;;;;;69.05;30.05;;;5.50;99.90;;;;;;5046152;28;20052;-80
2021/12/04 03:15:34;;;;;;;65.18;28.83;;;5.50;99.90;;;;;;5051880;28;20449;-80
2021/12/04 03:18:00;;;;;;;78.65;30.92;;;5.60;99.90;;;;;;5051976;28;20049;-81
2021/12/04 03:20:25;;;;;;;68.75;28.42;;;5.50;99.90;;;;;;5051345;28;20373;-81
2021/12/04 03:22:58;;;;;;;63.90;28.38;;;5.50;99.90;;;;;;5052099;28;20116;-80
2021/12/04 03:25:23;;;;;;;58.13;27.23;;;6.30;99.90;;;;;;5051377;28;20473;-81
2021/12/04 03:27:50;;;;;;;64.10;27.77;;;5.50;99.90;;;;;;5052179;28;20047;-79
2021/12/04 03:31:06;;;;;;;73.05;30.25;;;5.50;99.90;;;;;;5051752;28;20524;-80
2021/12/04 03:41:13;;;;;;;64.60;28.55;;;5.50;99.90;;;;;;5050948;28;20488;-81
2021/12/04 03:43:38;;;;;;;70.93;30.75;;;5.50;99.90;;;;;;5051849;28;20037;-79
2021/12/04 03:46:10;;;;;;;76.00;30.25;;;5.50;99.90;;;;;;5052002;28;20512;-79
2021/12/04 03:51:06;;;;;;;67.82;30.23;;;5.60;99.90;;;;;;5052307;28;20117;-80
2021/12/04 03:53:32;;;;;;;62.83;29.05;;;5.50;99.90;;;;;;5053926;28;20025;-80
2021/12/04 03:55:58;;;;;;;77.13;31.85;;;5.50;99.90;;;;;;5055971;28;20021;-81
2021/12/04 03:58:24;;;;;;;60.50;28.10;;;5.50;99.90;;;;;;5055703;28;20032;-81
2021/12/04 04:00:49;;;;;;;62.53;27.48;;;5.50;99.90;;;;;;5055194;28;20548;-79
2021/12/04 04:03:15;;;;;;;70.35;30.27;;;5.50;99.90;;;;;;5055507;28;20033;-80
2021/12/04 04:05:41;;;;;;;77.00;32.42;;;5.50;99.90;;;;;;5056148;28;20035;-80
2021/12/04 04:08:07;;;;;;;65.55;29.40;;;5.50;99.90;;;;;;5055418;28;20025;-80
2021/12/04 04:10:32;;;;;;;70.15;29.25;;;5.50;99.90;;;;;;5055420;28;20067;-80
2021/12/04 04:12:58;;;;;;;73.85;29.45;;;5.50;99.90;;;;;;5055724;28;20029;-80
2021/12/04 04:15:24;;;;;;;66.18;29.15;;;5.50;99.90;;;;;;5054650;28;20029;-80
2021/12/04 04:17:50;;;;;;;76.43;30.83;;;5.50;99.90;;;;;;5055545;28;20476;-80
2021/12/04 04:20:18;;;;;;;77.15;31.02;;;5.50;99.90;;;;;;5055415;28;20029;-80
2021/12/04 04:22:46;;;;;;;68.03;28.58;;;5.50;99.90;;;;;;5054802;28;20044;-80
2021/12/04 04:25:13;;;;;;;76.47;31.15;;;5.50;99.90;;;;;;5055245;28;20025;-79
2021/12/04 04:27:39;;;;;;;74.70;30.75;;;5.50;99.90;;;;;;5056357;28;20021;-81
2021/12/04 04:30:11;;;;;;;75.28;32.10;;;5.50;99.90;;;;;;5064654;28;20028;-79
2021/12/04 04:32:37;;;;;;;80.32;29.23;;;5.50;99.90;;;;;;5055383;28;20025;-80
2021/12/04 04:35:12;;;;;;;63.75;28.95;;;5.50;99.90;;;;;;5055236;28;20075;-79
2021/12/04 05:12:50;;;;;;;72.70;27.83;;;5.50;99.90;;;;;;5053902;28;20043;-79
2021/12/04 05:15:34;;;;;;;84.80;30.05;;;5.50;99.90;;;;;;5054101;28;20024;-80
2021/12/04 05:18:36;;;;;;;79.30;30.02;;;5.50;99.90;;;;;;5053674;28;20031;-80
2021/12/04 05:21:03;;;;;;;67.45;27.83;;;5.60;99.90;;;;;;5050238;28;20044;-80
2021/12/04 05:23:30;;;;;;;76.68;26.65;;;5.60;99.90;;;;;;5054096;28;20408;-79
2021/12/04 05:25:56;;;;;;;66.55;24.48;;;5.50;99.90;;;;;;5053688;28;20029;-79
2021/12/04 05:28:22;;;;;;;62.75;24.67;;;5.60;99.90;;;;;;5053902;28;20111;-80
2021/12/04 05:30:49;;;;;;;61.85;22.60;;;5.60;99.90;;;;;;5054398;28;20120;-80
2021/12/04 05:33:17;;;;;;;73.13;24.38;;;5.60;99.90;;;;;;5053260;28;20033;-81
2021/12/04 05:35:47;;;;;;;60.85;24.60;;;5.60;99.90;;;;;;5054231;28;20457;-80
2021/12/04 05:38:14;;;;;;;80.30;28.98;;;5.60;99.90;;;;;;5054678;28;20498;-79
2021/12/04 05:40:40;;;;;;;86.38;30.65;;;5.60;99.90;;;;;;5053564;28;20033;-79
2021/12/04 05:43:05;;;;;;;82.18;31.20;;;5.70;99.90;;;;;;5053878;28;20119;-78
2021/12/04 05:45:36;;;;;;;75.38;29.95;;;5.70;99.90;;;;;;5053856;28;20035;-80
2021/12/04 05:48:13;;;;;;;75.75;28.13;;;5.60;99.90;;;;;;5053788;28;20366;-78
2021/12/04 05:55:51;;;;;;;62.75;26.05;;;5.70;99.90;;;;;;5054156;28;20033;-80
2021/12/04 05:58:25;;;;;;;63.35;23.10;;;5.70;99.90;;;;;;5053648;28;20053;-79
2021/12/04 06:00:52;;;;;;;67.10;25.42;;;5.70;99.90;;;;;;5053879;28;20122;-80
2021/12/04 06:03:19;;;;;;;58.72;23.02;;;5.70;99.90;;;;;;5065086;28;20033;-80
2021/12/04 06:05:45;;;;;;;81.20;27.25;;;5.60;99.90;;;;;;5054112;28;20029;-79
2021/12/04 06:08:11;;;;;;;80.10;29.42;;;5.70;99.90;;;;;;5052976;28;20104;-80
2021/12/04 06:10:37;;;;;;;72.20;28.73;;;5.70;99.90;;;;;;5053260;28;20067;-80
2021/12/04 06:13:03;;;;;;;72.78;28.00;;;5.60;99.90;;;;;;5053527;28;20033;-80
2021/12/04 06:15:28;;;;;;;77.75;30.38;;;5.60;99.90;;;;;;5051563;28;20021;-81
2021/12/04 06:17:55;;;;;;;85.65;30.67;;;5.70;99.90;;;;;;5053488;28;20025;-80
2021/12/04 06:23:06;;;;;;;72.03;30.00;;;5.60;99.90;;;;;;5050929;28;20044;-81
2021/12/04 06:25:31;;;;;;;77.13;29.48;;;5.60;99.90;;;;;;5035786;28;20021;-80
2021/12/04 06:27:57;;;;;;;68.78;28.00;;;5.60;99.90;;;;;;5041215;28;20029;-80
2021/12/04 06:30:26;;;;;;;67.88;29.05;;;5.60;99.90;;;;;;5039126;28;20033;-80
2021/12/04 06:32:53;;;;;;;80.35;28.00;;;5.60;99.90;;;;;;5037307;28;20052;-80
2021/12/04 06:35:21;;;;;;;72.30;26.75;;;5.60;99.90;;;;;;5040995;28;20032;-80
2021/12/04 06:37:48;;;;;;;79.13;26.08;;;5.60;99.90;;;;;;5040288;28;20017;-81
2021/12/04 06:40:17;;;;;;;64.22;25.35;;;5.60;99.90;;;;;;5037099;28;20021;-82
2021/12/04 06:42:44;;;;;;;72.97;27.00;;;5.60;99.90;;;;;;5037209;28;20138;-83
2021/12/04 06:45:11;;;;;;;69.22;24.85;;;5.60;99.90;;;;;;5042423;28;20013;-83
2021/12/04 06:47:40;;;;;;;67.55;24.17;;;5.60;99.90;;;;;;5045757;28;20169;-83
2021/12/04 06:50:16;;;;;;;66.00;24.70;;;5.60;99.90;;;;;;5046361;28;20021;-82
2021/12/04 06:52:45;;;;;;;56.78;22.05;;;5.60;99.90;;;;;;5052302;28;20041;-83
2021/12/04 06:55:11;;;;;;;63.88;23.40;;;5.60;99.90;;;;;;5048908;28;20041;-82
2021/12/04 06:57:38;;;;;;;62.80;21.42;;;5.60;99.90;;;;;;5050990;28;20043;-82
2021/12/04 07:00:06;;;;;;;53.67;20.52;;;5.60;99.90;;;;;;5052291;28;20017;-81
2021/12/04 07:02:32;;;;;;;64.47;22.60;;;5.60;99.90;;;;;;5059054;28;20072;-81
2021/12/04 07:04:57;;;;;;;55.13;21.95;;;5.60;99.90;;;;;;5059266;28;20025;-81
2021/12/04 07:07:23;;;;;;;60.25;23.73;;;5.60;99.90;;;;;;5051323;28;20032;-81
2021/12/04 07:09:49;;;;;;;63.22;22.23;;;5.60;99.90;;;;;;5051939;28;20110;-81
2021/12/04 07:12:14;;;;;;;63.28;24.00;;;5.60;99.90;;;;;;5051165;28;20051;-82
2021/12/04 07:14:40;;;;;;;64.05;23.45;;;5.70;99.90;;;;;;5051208;28;20021;-82
2021/12/04 07:17:08;;;;;;;63.35;24.13;;;5.60;99.90;;;;;;5050250;28;20377;-82
2021/12/04 07:19:34;;;;;;;68.90;24.75;;;5.70;99.90;;;;;;5050187;28;20029;-81
2021/12/04 07:22:02;;;;;;;68.72;24.50;;;5.70;99.90;;;;;;5050944;28;20048;-81
2021/12/04 07:24:29;;;;;;;65.68;24.50;;;5.70;99.90;;;;;;5049611;28;20473;-81
2021/12/04 07:26:55;;;;;;;58.92;22.48;;;5.60;99.90;;;;;;5050911;28;20033;-82
2021/12/04 07:29:21;;;;;;;73.88;24.58;;;5.70;99.90;;;;;;5050171;28;20079;-81
2021/12/04 07:31:47;;;;;;;68.53;23.30;;;5.70;99.90;;;;;;5049795;28;20052;-81
2021/12/04 07:34:12;;;;;;;69.40;25.77;;;5.70;99.90;;;;;;5055828;28;20009;-80
2021/12/04 07:36:38;;;;;;;76.18;25.42;;;5.70;99.90;;;;;;5061196;28;20029;-80
2021/12/04 07:39:05;;;;;;;61.42;24.13;;;5.70;99.90;;;;;;5050516;28;20021;-80
2021/12/04 07:41:33;;;;;;;68.13;24.13;;;5.70;99.90;;;;;;5050400;28;20040;-80
2021/12/04 07:43:59;;;;;;;75.05;25.40;;;5.60;99.90;;;;;;5050659;28;20041;-81
2021/12/04 07:46:25;;;;;;;73.43;24.13;;;5.70;99.90;;;;;;5049691;28;20362;-80
2021/12/04 07:48:50;;;;;;;66.50;25.30;;;5.60;99.90;;;;;;5050421;28;20491;-80
2021/12/04 07:51:19;;;;;;;69.45;24.60;;;5.70;99.90;;;;;;5050064;28;20036;-80
2021/12/04 07:53:47;;;;;;;64.97;25.02;;;5.70;99.90;;;;;;5049534;28;20033;-80
2021/12/04 07:56:15;;;;;;;70.28;24.02;;;5.70;99.90;;;;;;5050099;28;20064;-79
2021/12/04 07:58:42;;;;;;;63.30;22.50;;;5.60;99.90;;;;;;5050462;28;20481;-80
2021/12/04 08:01:09;;;;;;;64.85;23.23;;;5.70;99.90;;;;;;5049577;28;20096;-80
2021/12/04 08:03:34;;;;;;;64.68;25.02;;;5.60;99.90;;;;;;5049751;28;20044;-81
2021/12/04 08:06:00;;;;;;;65.97;24.20;;;5.60;99.90;;;;;;5049954;28;20025;-80
2021/12/04 08:08:26;;;;;;;69.28;24.27;;;5.60;99.90;;;;;;5049275;28;20735;-80
2021/12/04 08:10:52;;;;;;;68.45;24.65;;;5.60;99.90;;;;;;5050197;28;20044;-81
2021/12/04 08:13:17;;;;;;;66.20;23.77;;;5.60;99.90;;;;;;5050073;28;20119;-82
2021/12/04 08:15:43;;;;;;;73.72;25.63;;;5.60;99.90;;;;;;5050038;28;20516;-81
2021/12/04 08:18:09;;;;;;;65.50;24.42;;;5.60;99.90;;;;;;5050077;28;20025;-82
2021/12/04 08:20:36;;;;;;;67.72;23.58;;;5.60;99.90;;;;;;5049882;28;20025;-82
2021/12/04 08:23:06;;;;;;;54.67;23.73;;;5.60;99.90;;;;;;5049267;28;20037;-81
2021/12/04 08:25:33;;;;;;;69.25;24.90;;;5.60;99.90;;;;;;5050201;28;20469;-82
2021/12/04 08:27:59;;;;;;;58.08;22.67;;;5.60;99.90;;;;;;5052671;28;20029;-82
2021/12/04 08:30:28;;;;;;;59.97;23.33;;;5.70;99.90;;;;;;5052263;28;20027;-81
2021/12/04 08:32:56;;;;;;;57.42;21.52;;;5.70;99.90;;;;;;5050260;28;20035;-82
2021/12/04 08:35:25;;;;;;;59.80;22.20;;;5.80;99.90;;;;;;5049591;28;20571;-82
2021/12/04 08:37:54;;;;;;;48.50;20.80;;;5.70;99.90;;;;;;5047236;28;20025;-79
2021/12/04 08:40:20;;;;;;;49.58;19.77;;;5.80;99.90;;;;;;5052677;28;20032;-78
2021/12/04 08:42:47;;;;;;;47.65;19.38;;;5.70;99.90;;;;;;5053150;28;20437;-78
2021/12/04 08:45:15;;;;;;;52.45;19.55;;;5.70;99.90;;;;;;5048413;28;20496;-78
2021/12/04 08:47:41;;;;;;;42.58;18.58;;;5.80;99.90;;;;;;5047427;28;20025;-79
2021/12/04 08:50:09;;;;;;;42.03;17.67;;;5.80;99.90;;;;;;5051746;28;20070;-80
2021/12/04 08:52:36;;;;;;;41.92;18.60;;;5.80;99.90;;;;;;5052357;28;20123;-79
2021/12/04 08:55:04;;;;;;;46.42;17.45;;;5.80;99.90;;;;;;5053334;28;20025;-77
2021/12/04 08:57:29;;;;;;;49.88;17.75;;;5.80;99.90;;;;;;5052665;28;20401;-78
2021/12/04 08:59:55;;;;;;;49.08;20.35;;;5.80;99.90;;;;;;5053667;28;20033;-77
2021/12/04 09:02:21;;;;;;;53.00;21.30;;;5.80;99.90;;;;;;5052888;28;20029;-77
2021/12/04 09:04:47;;;;;;;47.13;19.33;;;5.90;99.90;;;;;;5056945;28;20033;-77
2021/12/04 09:07:14;;;;;;;57.70;20.08;;;5.90;99.90;;;;;;5055000;28;20031;-77
2021/12/04 09:09:40;;;;;;;44.38;18.77;;;5.90;99.90;;;;;;5053798;28;20041;-78
2021/12/04 09:12:11;;;;;;;49.03;19.40;;;5.90;99.90;;;;;;5048202;28;20067;-77
2021/12/04 09:14:38;;;;;;;44.55;18.48;;;5.90;99.90;;;;;;5052735;28;20036;-78
2021/12/04 09:17:08;;;;;;;39.20;17.65;;;5.90;99.90;;;;;;5062056;28;20036;-76
2021/12/04 09:19:37;;;;;;;44.40;17.98;;;5.90;99.90;;;;;;5062104;28;20051;-80
2021/12/04 09:22:06;;;;;;;46.15;19.08;;;5.90;99.90;;;;;;5054188;28;20049;-78
2021/12/04 09:24:40;;;;;;;52.05;19.23;;;5.90;99.90;;;;;;5052812;28;20385;-77
2021/12/04 09:27:18;;;;;;;35.50;16.80;;;6.00;99.90;;;;;;5050351;28;20034;-79
2021/12/04 09:59:13;;;;;;;;;;;6.10;99.90;;;;;;4989787;28;20125;-79
2021/12/04 10:00:08;;;;;;;59.10;21.25;;;6.10;99.90;;;;;;5050266;28;20032;-76
2021/12/04 10:05:20;;;;;;;51.20;20.00;;;6.20;99.90;;;;;;5052063;28;20028;-77
2021/12/04 10:13:48;;;;;;;60.45;20.50;;;6.30;99.90;;;;;;5051307;28;20036;-79
2021/12/04 10:32:55;;;;;;;57.38;21.10;;;6.50;99.90;;;;;;5050370;28;20040;-79
2021/12/04 10:35:22;;;;;;;57.17;21.08;;;6.50;99.90;;;;;;5050676;28;20029;-79
2021/12/04 10:37:53;;;;;;;65.07;22.75;;;6.70;99.90;;;;;;5051718;28;20061;-80
2021/12/04 10:40:20;;;;;;;;;;;6.70;99.90;;;;;;5049255;28;20363;-79
2021/12/04 10:42:55;;;;;;;58.03;22.15;;;6.70;99.90;;;;;;5051180;28;19919;-78
2021/12/04 10:45:32;;;;;;;59.22;23.45;;;6.70;99.90;;;;;;5051396;28;20033;-81
2021/12/04 10:47:59;;;;;;;57.65;22.85;;;6.80;99.90;;;;;;5052104;28;20027;-80
2021/12/04 10:53:01;;;;;;;57.05;22.55;;;6.70;99.90;;;;;;5056435;28;20024;-80
2021/12/04 11:01:01;;;;;;;67.07;24.25;;;6.60;99.90;;;;;;5041145;28;20029;-79
2021/12/04 11:03:36;;;;;;;74.60;23.98;;;6.50;99.90;;;;;;5030918;28;20086;-80
2021/12/04 11:28:08;;;;;;;92.85;27.60;;;6.50;99.90;;;;;;5032488;28;20068;-80
2021/12/04 11:36:19;;;;;;;83.07;25.15;;;6.50;99.90;;;;;;5032283;28;20060;-76
2021/12/04 11:41:36;;;;;;;69.32;22.95;;;6.50;99.90;;;;;;5032161;28;20482;-78
2021/12/04 11:44:08;;;;;;;84.20;24.98;;;6.50;99.90;;;;;;5032468;28;20116;-78
2021/12/04 11:46:45;;;;;;;73.50;23.70;;;6.50;99.90;;;;;;5031640;28;20108;-78
2021/12/04 11:49:19;;;;;;;69.40;23.73;;;6.60;99.90;;;;;;5031626;28;20398;-77
2021/12/04 11:52:16;;;;;;;78.60;24.58;;;6.50;99.90;;;;;;5031801;28;20064;-79
2021/12/04 11:54:53;;;;;;;68.22;22.83;;;6.50;99.90;;;;;;5032056;28;20030;-77
2021/12/04 11:57:28;;;;;;;54.20;21.02;;;6.60;99.90;;;;;;5032494;28;20469;-77
2021/12/04 11:59:53;;;;;;;50.72;22.55;;;6.60;99.90;;;;;;5032387;28;20022;-78
2021/12/04 12:02:24;;;;;;;44.67;20.95;;;6.70;99.90;;;;;;5032105;28;20099;-78
2021/12/04 12:04:56;;;;;;;53.03;21.02;;;6.50;99.90;;;;;;5032470;28;20026;-78
2021/12/04 12:07:24;;;;;;;46.50;21.85;;;6.60;99.90;;;;;;5031746;28;20044;-77
2021/12/04 12:10:11;;;;;;;56.70;23.77;;;6.60;99.90;;;;;;5043607;28;20045;-78
2021/12/04 12:12:42;;;;;;;45.30;21.55;;;6.60;99.90;;;;;;5032328;28;20025;-78
2021/12/04 12:15:33;;;;;;;51.55;22.25;;;6.60;99.90;;;;;;5035817;28;20036;-78
2021/12/04 12:18:09;;;;;;;41.97;20.17;;;6.70;99.90;;;;;;5031649;28;20393;-78
2021/12/04 12:20:43;;;;;;;50.45;21.58;;;6.70;99.90;;;;;;5035351;28;20501;-80
2021/12/04 12:23:11;;;;;;;45.10;21.95;;;6.70;99.90;;;;;;5036101;28;20073;-78
2021/12/04 12:34:04;;;;;;;41.17;19.33;;;6.80;99.90;;;;;;5036557;28;20079;-78
2021/12/04 12:36:32;;;;;;;41.47;18.92;;;6.80;99.90;;;;;;5036729;28;20033;-78
2021/12/04 12:39:01;;;;;;;44.85;19.85;;;6.70;99.90;;;;;;5042882;28;20040;-77
2021/12/04 12:41:41;;;;;;;45.22;20.15;;;6.70;99.90;;;;;;5046877;28;20022;-76
2021/12/04 12:44:17;;;;;;;47.88;21.33;;;6.80;99.90;;;;;;5043134;28;20052;-77
2021/12/04 12:47:14;;;;;;;53.38;21.83;;;6.70;99.90;;;;;;5035970;28;20053;-78
2021/12/04 12:49:43;;;;;;;47.53;20.60;;;6.60;99.90;;;;;;5032793;28;20108;-79
2021/12/04 12:52:29;;;;;;;52.92;20.58;;;6.60;99.90;;;;;;5035496;28;20036;-77
2021/12/04 12:55:03;;;;;;;54.10;23.85;;;6.60;99.90;;;;;;5035727;28;20032;-77
2021/12/04 12:57:34;;;;;;;56.38;22.80;;;6.60;99.90;;;;;;5035278;28;20104;-77
2021/12/04 13:11:51;;;;;;;50.05;20.42;;;6.60;99.90;;;;;;5035613;28;20075;-77
2021/12/04 13:14:19;;;;;;;53.45;20.52;;;6.60;99.90;;;;;;5035105;28;20029;-77
2021/12/04 13:16:56;;;;;;;48.80;18.48;;;6.60;99.90;;;;;;5034685;28;20026;-77
2021/12/04 13:19:23;;;;;;;42.95;18.02;;;6.60;99.90;;;;;;5034714;28;20025;-77
2021/12/04 13:21:53;;;;;;;35.42;17.13;;;6.70;99.90;;;;;;5034971;28;20088;-77
2021/12/04 13:24:24;;;;;;;34.58;16.00;;;6.70;99.90;;;;;;5034076;28;20110;-77
2021/12/04 13:26:52;;;;;;;35.60;15.35;;;6.70;99.90;;;;;;5034965;28;20034;-77
2021/12/04 13:29:21;;;;;;;32.58;14.77;;;6.70;99.90;;;;;;5034531;28;20026;-77
2021/12/04 13:31:47;;;;;;;27.73;13.02;;;6.70;99.90;;;;;;5034019;28;20096;-76
2021/12/04 13:34:14;;;;;;;29.38;13.10;;;6.70;99.90;;;;;;5034388;28;20486;-77
2021/12/04 13:36:45;;;;;;;23.83;12.98;;;6.70;99.90;;;;;;5034986;28;20029;-76
2021/12/04 13:39:11;;;;;;;;;;;6.70;99.90;;;;;;5037848;28;20446;-76
2021/12/04 13:41:39;;;;;;;21.30;10.77;;;6.80;99.90;;;;;;5038286;28;19997;-76
2021/12/04 13:44:08;;;;;;;16.85;8.98;;;6.80;99.90;;;;;;5034345;28;20037;-77
2021/12/04 13:46:43;;;;;;;17.30;10.02;;;6.80;99.90;;;;;;5033569;28;20083;-77
2021/12/04 13:49:10;;;;;;;18.13;8.05;;;6.90;99.90;;;;;;5034272;28;20469;-77
2021/12/04 13:51:36;;;;;;;9.23;5.72;;;6.90;99.90;;;;;;5033856;28;20040;-77
2021/12/04 13:54:02;;;;;;;14.48;4.35;;;6.80;99.90;;;;;;5034933;28;20025;-76
2021/12/04 13:56:29;;;;;;;8.43;3.72;;;6.90;99.90;;;;;;5034000;28;20462;-75
2021/12/04 13:58:59;;;;;;;11.18;4.93;;;6.80;99.90;;;;;;5033844;28;20040;-77
2021/12/04 14:01:26;;;;;;;9.00;4.03;;;6.70;99.90;;;;;;5034214;28;20450;-76
2021/12/04 14:03:56;;;;;;;14.00;3.10;;;6.70;99.90;;;;;;5034130;28;20037;-75
2021/12/04 14:06:22;;;;;;;7.32;2.88;;;6.70;99.90;;;;;;5033218;28;20362;-75
2021/12/04 14:09:06;;;;;;;9.52;3.83;;;6.60;99.90;;;;;;5035086;28;20095;-75
2021/12/04 14:11:35;;;;;;;8.00;3.40;;;6.50;99.90;;;;;;5034730;28;20036;-76
2021/12/04 14:14:15;;;;;;;9.63;4.43;;;6.50;99.90;;;;;;5033600;28;20025;-76
2021/12/04 14:16:43;;;;;;;8.07;4.07;;;6.50;99.90;;;;;;5034215;28;20025;-76
2021/12/04 14:19:15;;;;;;;5.65;3.05;;;6.50;99.90;;;;;;5034007;28;20064;-76
2021/12/04 14:21:41;;;;;;;11.13;5.03;;;6.50;99.90;;;;;;5042505;28;20041;-76
2021/12/04 14:24:06;;;;;;;8.65;3.08;;;6.50;99.90;;;;;;5046775;28;20401;-78
2021/12/04 14:26:33;;;;;;;5.78;3.28;;;6.50;99.90;;;;;;5038146;28;20029;-77
2021/12/04 14:28:58;;;;;;;8.32;3.50;;;6.50;99.90;;;;;;5033826;28;20470;-77
2021/12/04 14:31:24;;;;;;;4.28;2.00;;;6.40;99.90;;;;;;5033272;28;20105;-78
2021/12/04 14:33:50;;;;;;;4.15;1.70;;;6.70;99.90;;;;;;5032965;28;20026;-77
2021/12/04 14:36:22;;;;;;;2.83;1.27;;;6.40;99.90;;;;;;5032212;28;20492;-76
2021/12/04 14:38:48;;;;;;;4.70;0.88;;;6.50;99.90;;;;;;5033251;28;20104;-77
2021/12/04 14:41:15;;;;;;;2.20;1.02;;;6.50;99.90;;;;;;5032626;28;20112;-78
2021/12/04 14:43:42;;;;;;;4.13;1.00;;;6.40;99.90;;;;;;5033134;28;20572;-78
2021/12/04 14:46:18;;;;;;;2.13;1.45;;;6.50;99.90;;;;;;5033282;28;20425;-79
2021/12/04 14:48:48;;;;;;;5.38;0.60;;;6.50;99.90;;;;;;5032644;28;20072;-77
2021/12/04 14:51:18;;;;;;;5.40;1.02;;;6.50;99.90;;;;;;5032771;28;20045;-77
2021/12/04 14:53:49;;;;;;;1.73;0.68;;;6.50;99.90;;;;;;5032460;28;20042;-76
2021/12/04 14:56:16;;;;;;;2.22;0.77;;;6.50;99.90;;;;;;5036235;28;20438;-78
2021/12/04 14:58:42;;;;;;;2.15;0.57;;;6.50;99.90;;;;;;5035151;28;20040;-78
2021/12/04 15:01:12;;;;;;;9.68;1.38;;;6.40;99.90;;;;;;5032981;28;20025;-76
2021/12/04 15:03:50;;;;;;;3.13;1.02;;;6.50;99.90;;;;;;5031626;28;20045;-77
2021/12/04 15:06:17;;;;;;;9.63;0.85;;;6.40;99.90;;;;;;5032013;28;20025;-77
2021/12/04 15:08:58;;;;;;;5.10;1.10;;;6.50;99.90;;;;;;5031929;28;20029;-78
2021/12/04 15:11:31;;;;;;;1.92;0.80;;;6.50;99.90;;;;;;5038085;28;20025;-78
2021/12/04 15:14:12;;;;;;;2.63;0.63;;;6.50;99.90;;;;;;5032681;28;20462;-78
2021/12/04 15:16:48;;;;;;;3.70;0.90;;;6.50;99.90;;;;;;5032533;28;20101;-78
2021/12/04 15:19:20;;;;;;;6.80;0.90;;;6.50;99.90;;;;;;5032645;28;20025;-79
2021/12/04 15:22:00;;;;;;;1.77;0.90;;;6.50;99.90;;;;;;5032595;28;20388;-79
2021/12/04 15:24:38;;;;;;;3.03;0.98;;;6.40;99.90;;;;;;5032077;28;20112;-80
2021/12/04 15:27:16;;;;;;;1.85;1.13;;;6.40;99.90;;;;;;5032869;28;20061;-79
2021/12/04 15:29:45;;;;;;;4.80;1.40;;;6.40;99.90;;;;;;5032505;28;20025;-79
2021/12/04 15:32:14;;;;;;;1.85;1.30;;;6.40;99.90;;;;;;5031915;28;20037;-79
2021/12/04 15:34:53;;;;;;;3.20;1.50;;;6.50;99.90;;;;;;5032905;28;20477;-79
2021/12/04 15:37:38;;;;;;;7.43;1.50;;;6.50;99.90;;;;;;5032047;28;20048;-79
2021/12/04 15:40:12;;;;;;;3.47;1.45;;;6.50;99.90;;;;;;5031649;28;20018;-76
2021/12/04 15:43:00;;;;;;;6.47;1.60;;;6.40;99.90;;;;;;5031556;28;20049;-78
2021/12/04 15:45:53;;;;;;;7.35;1.23;;;6.40;99.90;;;;;;5031010;28;20030;-78